Inglewood, CA

12:11 AM PST on December 04, 2016 (GMT -0800)
Civic Center | | Change Station

Elev 138 ft 33.96 °N, 118.36 °W | Updated 12 minutes ago

Clear
Clear
53.9 °F
Feels Like 53.9 °F
N
0.0
Wind Variable Wind from SE
Gusts 3.0 mph

Today
High -- | Low -- °F
--% Chance of Precip.
Yesterday
High -- | Low -- °F
Precip. -- in
Pressure 30.06 in
Visibility 10.0 miles
Clouds Clear
Dew Point 32 °F
Humidity 43%
Rainfall in
Snow Depth Not available.
6:43 AM 4:44 PM
Waxing Crescent, 21% visible
METAR KLAX 040753Z 08004KT 10SM CLR 12/M02 A3006 RMK AO2 SLP178 T01221017 401890072
Pressure 30.06 in
Visibility 10.0 miles
Clouds Clear
Dew Point 32 °F
Humidity 43%
Rainfall in
Snow Depth Not available.
6:43 AM 4:44 PM
Waxing Crescent, 21% visible
METAR KLAX 040753Z 08004KT 10SM CLR 12/M02 A3006 RMK AO2 SLP178 T01221017 401890072

10-Day Weather Forecast

Almanac

Astronomy

Dec. 04, 2016 Rise Set
Actual Time
Civil Twilight
Nautical Twilight
Astronomical Twilight
Moon
Length of Visible Light
Length of Day
Tomorrow will be .
, % of the Moon is Illuminated

Today's Extremes

State Highs State Lows

Community

WunderPhotos

Upload Photos

1,955,587 photos uploaded!

WunderBlog® & News

Nearby

Air Quality

  Air Quality AQ Index Pollutant
Not available.

Snow Depth

Station Depth Elevation

Earthquake Activity

City Distance Mag. Time & Date
Minimum magnitude displayed is 2.5.

Coastal Water Temperatures

Place Temperature

Stations

Nearby Weather Stations

Station Location Temp. Windchill Dew Point Humidity Wind Precip. Elev Updated Type
                   

Watches & Warnings

There are currently no watches in effect.